OEAFG LOAV-LKTB
Flight info
| Callsign | OEAFG |
|---|---|
| Flight time | N/A |
| Altitude | 9000 |
| Route | LOWW/N0181F100 DCT MIKOV DCT VP002 DCT TB205 DCT VP009 |
| Aircraft | DA42/L-SBDGRY/S |
Departure
| Time | N/A |
|---|---|
| Airport | Vöslau-Kottingbrunn Airfield (LOAV) |
Arrival
| Time | 2026-04-28 21:01 |
|---|---|
| Airport | Brno-Tuřany Airport (LKTB) |
| Time | Latitude | Longitude | Altitude | Speed | Heading |
|---|---|---|---|---|---|
| 2026-04-28 20:32 | 48.68023 | 16.64219 | 3481 ft | 96 kts | 14° |
| 2026-04-28 20:32 | 48.68686 | 16.64289 | 3502 ft | 99 kts | 2° |
| 2026-04-28 20:32 | 48.69391 | 16.64194 | 3509 ft | 101 kts | 358° |
| 2026-04-28 20:32 | 48.70078 | 16.64123 | 3589 ft | 98 kts | 4° |
| 2026-04-28 20:33 | 48.70760 | 16.64066 | 3584 ft | 100 kts | 1° |
| 2026-04-28 20:33 | 48.71462 | 16.64075 | 3587 ft | 100 kts | 9° |
| 2026-04-28 20:33 | 48.72132 | 16.64249 | 3693 ft | 90 kts | 8° |
| 2026-04-28 20:33 | 48.72784 | 16.64233 | 3720 ft | 98 kts | 1° |
| 2026-04-28 20:34 | 48.73487 | 16.64189 | 3715 ft | 100 kts | 2° |
| 2026-04-28 20:34 | 48.74187 | 16.64211 | 3783 ft | 99 kts | 6° |
| 2026-04-28 20:34 | 48.74648 | 16.64772 | 3845 ft | 87 kts | 61° |
| 2026-04-28 20:34 | 48.75146 | 16.65461 | 3661 ft | 105 kts | 30° |
| 2026-04-28 20:35 | 48.75741 | 16.65916 | 3894 ft | 91 kts | 32° |
| 2026-04-28 20:35 | 48.76383 | 16.66143 | 3807 ft | 107 kts | 357° |
| 2026-04-28 20:35 | 48.77142 | 16.65874 | 3793 ft | 102 kts | 352° |
| 2026-04-28 20:35 | 48.77861 | 16.65638 | 3670 ft | 112 kts | 351° |
| 2026-04-28 20:36 | 48.78554 | 16.65416 | 3785 ft | 95 kts | 357° |
| 2026-04-28 20:36 | 48.79218 | 16.65363 | 3652 ft | 95 kts | 359° |
| 2026-04-28 20:36 | 48.79822 | 16.64955 | 3572 ft | 107 kts | 320° |
| 2026-04-28 20:36 | 48.80107 | 16.63867 | 3486 ft | 116 kts | 270° |
| 2026-04-28 20:37 | 48.80230 | 16.62735 | 3510 ft | 102 kts | 302° |
| 2026-04-28 20:37 | 48.80690 | 16.61969 | 3433 ft | 98 kts | 327° |
| 2026-04-28 20:37 | 48.81032 | 16.61024 | 3352 ft | 114 kts | 282° |
| 2026-04-28 20:37 | 48.80941 | 16.59797 | 3096 ft | 117 kts | 309° |
| 2026-04-28 20:38 | 48.81551 | 16.59728 | 3016 ft | 79 kts | 50° |
| 2026-04-28 20:38 | 48.81987 | 16.60253 | 3078 ft | 89 kts | 27° |
| 2026-04-28 20:38 | 48.82603 | 16.60438 | 3033 ft | 88 kts | 35° |
| 2026-04-28 20:38 | 48.82918 | 16.61167 | 2978 ft | 83 kts | 77° |
| 2026-04-28 20:39 | 48.82687 | 16.62026 | 3017 ft | 87 kts | 105° |
| 2026-04-28 20:39 | 48.82496 | 16.62975 | 2811 ft | 98 kts | 98° |
| 2026-04-28 20:39 | 48.82443 | 16.63951 | 2754 ft | 93 kts | 75° |
| 2026-04-28 20:39 | 48.82677 | 16.64813 | 2719 ft | 85 kts | 56° |
| 2026-04-28 20:40 | 48.83075 | 16.65452 | 2692 ft | 82 kts | 43° |
| 2026-04-28 20:40 | 48.83558 | 16.65995 | 2559 ft | 88 kts | 34° |
| 2026-04-28 20:40 | 48.84141 | 16.66149 | 2515 ft | 96 kts | 356° |
| 2026-04-28 20:40 | 48.84755 | 16.65652 | 2396 ft | 104 kts | 332° |
| 2026-04-28 20:41 | 48.85314 | 16.64938 | 2438 ft | 98 kts | 338° |
| 2026-04-28 20:41 | 48.85874 | 16.64440 | 2596 ft | 91 kts | 341° |
| 2026-04-28 20:41 | 48.86447 | 16.63941 | 2615 ft | 102 kts | 335° |
| 2026-04-28 20:41 | 48.87013 | 16.63402 | 2623 ft | 90 kts | 358° |
| 2026-04-28 20:42 | 48.87589 | 16.63322 | 2821 ft | 83 kts | 8° |
| 2026-04-28 20:42 | 48.88210 | 16.63420 | 2749 ft | 98 kts | 16° |
| 2026-04-28 20:42 | 48.88816 | 16.63587 | 2919 ft | 85 kts | 24° |
| 2026-04-28 20:42 | 48.89382 | 16.63829 | 2940 ft | 88 kts | 20° |
| 2026-04-28 20:43 | 48.89969 | 16.64096 | 2903 ft | 94 kts | 24° |
| 2026-04-28 20:43 | 48.90582 | 16.64419 | 2891 ft | 98 kts | 25° |
| 2026-04-28 20:43 | 48.91177 | 16.64646 | 3116 ft | 91 kts | 25° |
| 2026-04-28 20:43 | 48.91753 | 16.65133 | 3054 ft | 96 kts | 33° |
| 2026-04-28 20:44 | 48.92358 | 16.65602 | 3137 ft | 92 kts | 30° |
| 2026-04-28 20:44 | 48.92960 | 16.66094 | 3037 ft | 100 kts | 25° |
| 2026-04-28 20:44 | 48.93647 | 16.66327 | 2849 ft | 95 kts | 13° |
| 2026-04-28 20:44 | 48.94269 | 16.66425 | 2741 ft | 83 kts | 14° |
| 2026-04-28 20:45 | 48.94838 | 16.66520 | 2618 ft | 86 kts | 17° |
| 2026-04-28 20:45 | 48.95405 | 16.66778 | 2497 ft | 82 kts | 26° |
| 2026-04-28 20:45 | 48.95978 | 16.67096 | 2204 ft | 89 kts | 28° |
| 2026-04-28 20:45 | 48.96483 | 16.67500 | 2195 ft | 78 kts | 36° |
| 2026-04-28 20:46 | 48.96973 | 16.67802 | 2139 ft | 74 kts | 25° |
| 2026-04-28 20:46 | 48.97507 | 16.67897 | 2029 ft | 77 kts | 13° |
| 2026-04-28 20:46 | 48.98060 | 16.67920 | 1854 ft | 86 kts | 17° |
| 2026-04-28 20:46 | 48.98635 | 16.68033 | 1869 ft | 83 kts | 13° |
| 2026-04-28 20:47 | 48.99219 | 16.68082 | 1843 ft | 83 kts | 10° |
| 2026-04-28 20:47 | 48.99793 | 16.68121 | 1856 ft | 80 kts | 13° |
| 2026-04-28 20:47 | 49.00351 | 16.68216 | 1909 ft | 80 kts | 16° |
| 2026-04-28 20:47 | 49.00943 | 16.68331 | 1855 ft | 88 kts | 15° |
| 2026-04-28 20:48 | 49.01528 | 16.68397 | 1894 ft | 83 kts | 16° |
| 2026-04-28 20:48 | 49.02084 | 16.68461 | 2023 ft | 81 kts | 11° |
| 2026-04-28 20:48 | 49.02659 | 16.68394 | 2122 ft | 82 kts | 10° |
| 2026-04-28 20:48 | 49.03245 | 16.68406 | 2139 ft | 89 kts | 14° |
| 2026-04-28 20:49 | 49.03852 | 16.68564 | 2193 ft | 87 kts | 25° |
| 2026-04-28 20:49 | 49.04377 | 16.68868 | 2245 ft | 81 kts | 26° |
| 2026-04-28 20:49 | 49.04959 | 16.69040 | 2200 ft | 83 kts | 19° |
| 2026-04-28 20:49 | 49.05530 | 16.69226 | 2141 ft | 85 kts | 24° |
| 2026-04-28 20:50 | 49.06083 | 16.69610 | 2001 ft | 90 kts | 31° |
| 2026-04-28 20:50 | 49.06644 | 16.69870 | 2160 ft | 85 kts | 15° |
| 2026-04-28 20:50 | 49.07251 | 16.69946 | 2164 ft | 87 kts | 15° |
| 2026-04-28 20:50 | 49.07848 | 16.70057 | 2138 ft | 87 kts | 17° |
| 2026-04-28 20:51 | 49.08441 | 16.70227 | 2178 ft | 84 kts | 19° |
| 2026-04-28 20:51 | 49.09025 | 16.70431 | 2164 ft | 87 kts | 13° |
| 2026-04-28 20:51 | 49.09620 | 16.70452 | 2188 ft | 86 kts | 14° |
| 2026-04-28 20:51 | 49.10015 | 16.70487 | 2196 ft | 87 kts | 12° |
| 2026-04-28 20:52 | 49.10845 | 16.70481 | 2179 ft | 92 kts | 11° |
| 2026-04-28 20:52 | 49.11453 | 16.70513 | 2297 ft | 86 kts | 11° |
| 2026-04-28 20:52 | 49.12020 | 16.70085 | 2213 ft | 120 kts | 304° |
| 2026-04-28 20:52 | 49.12057 | 16.68815 | 2301 ft | 117 kts | 274° |
| 2026-04-28 20:53 | 49.11107 | 16.67628 | 2273 ft | 87 kts | 112° |
| 2026-04-28 20:53 | 49.11179 | 16.68415 | 2285 ft | 76 kts | 64° |
| 2026-04-28 20:53 | 49.11376 | 16.69191 | 2348 ft | 80 kts | 69° |
| 2026-04-28 20:54 | 49.11541 | 16.69997 | 2478 ft | 82 kts | 81° |
| 2026-04-28 20:54 | 49.11261 | 16.70802 | 2586 ft | 97 kts | 136° |
| 2026-04-28 20:54 | 49.10523 | 16.70810 | 2565 ft | 116 kts | 194° |
| 2026-04-28 20:54 | 49.09900 | 16.69945 | 2512 ft | 123 kts | 249° |
| 2026-04-28 20:55 | 49.09871 | 16.68725 | 2380 ft | 114 kts | 295° |
| 2026-04-28 20:55 | 49.10115 | 16.67582 | 2309 ft | 115 kts | 297° |
| 2026-04-28 20:55 | 49.10294 | 16.66453 | 2291 ft | 109 kts | 293° |
| 2026-04-28 20:55 | 49.10485 | 16.65347 | 2208 ft | 105 kts | 302° |
| 2026-04-28 20:56 | 49.10801 | 16.64340 | 2044 ft | 103 kts | 308° |
| 2026-04-28 20:56 | 49.11109 | 16.63373 | 1887 ft | 101 kts | 311° |
| 2026-04-28 20:56 | 49.11481 | 16.62589 | 1694 ft | 83 kts | 326° |
| 2026-04-28 20:56 | 49.11876 | 16.62112 | 1622 ft | 70 kts | 344° |
| 2026-04-28 20:57 | 49.12360 | 16.61785 | 1597 ft | 77 kts | 347° |
| 2026-04-28 20:57 | 49.12848 | 16.61513 | 1721 ft | 72 kts | 354° |
| 2026-04-28 20:57 | 49.13358 | 16.61302 | 1720 ft | 79 kts | 357° |
| 2026-04-28 20:57 | 49.13867 | 16.61051 | 1751 ft | 71 kts | 348° |
| 2026-04-28 20:58 | 49.14311 | 16.60805 | 1699 ft | 66 kts | 356° |
| 2026-04-28 20:58 | 49.14808 | 16.60696 | 1633 ft | 70 kts | 11° |
| 2026-04-28 20:58 | 49.15278 | 16.60854 | 1611 ft | 68 kts | 28° |
| 2026-04-28 20:58 | 49.15610 | 16.61368 | 1492 ft | 66 kts | 57° |
| 2026-04-28 20:59 | 49.15746 | 16.62002 | 1388 ft | 67 kts | 81° |
| 2026-04-28 20:59 | 49.15746 | 16.62713 | 1351 ft | 66 kts | 92° |
| 2026-04-28 20:59 | 49.15652 | 16.63404 | 1256 ft | 67 kts | 93° |
| 2026-04-28 20:59 | 49.15601 | 16.64103 | 1208 ft | 66 kts | 93° |
| 2026-04-28 21:00 | 49.15552 | 16.64793 | 1149 ft | 59 kts | 85° |
| 2026-04-28 21:00 | 49.15493 | 16.65443 | 1074 ft | 68 kts | 91° |
| 2026-04-28 21:00 | 49.15427 | 16.66190 | 1006 ft | 68 kts | 93° |
| 2026-04-28 21:00 | 49.15363 | 16.66849 | 899 ft | 62 kts | 91° |
| 2026-04-28 21:01 | 49.15308 | 16.67483 | 824 ft | 57 kts | 92° |
| 2026-04-28 21:01 | 49.15260 | 16.68010 | 784 ft | 41 kts | 85° |
| 2026-04-28 21:01 | 49.15242 | 16.68320 | 784 ft | 19 kts | 101° |
| 2026-04-28 21:01 | 49.15232 | 16.68457 | 783 ft | 10 kts | 59° |
| 2026-04-28 21:02 | 49.15275 | 16.68493 | 786 ft | 4 kts | 7° |
| 2026-04-28 21:02 | 49.15339 | 16.68511 | 789 ft | 12 kts | 10° |
| 2026-04-28 21:02 | 49.15393 | 16.68548 | 789 ft | 2 kts | 62° |
| 2026-04-28 21:02 | 49.15389 | 16.68645 | 790 ft | 8 kts | 99° |
| 2026-04-28 21:03 | 49.15382 | 16.68725 | 787 ft | 5 kts | 89° |
| 2026-04-28 21:03 | 49.15392 | 16.68735 | 787 ft | 0 kts | 0° |
| 2026-04-28 21:03 | 49.15393 | 16.68735 | 787 ft | 0 kts | 0° |